createdAt,value
2023-05-19T00:01:02.490Z,13.54
2023-05-19T00:04:06.003Z,13.59
2023-05-19T00:07:11.459Z,13.54
2023-05-19T00:10:15.210Z,13.60
2023-05-19T00:13:18.286Z,13.58
2023-05-19T00:16:22.936Z,13.72
2023-05-19T00:19:26.315Z,13.72
2023-05-19T00:22:29.415Z,13.56
2023-05-19T00:25:32.099Z,13.63
2023-05-19T00:28:35.158Z,13.69
2023-05-19T00:31:37.904Z,13.68
2023-05-19T00:34:41.021Z,13.73
2023-05-19T00:37:43.713Z,13.44
2023-05-19T00:40:48.082Z,13.69
2023-05-19T00:44:30.392Z,13.70
2023-05-19T00:47:39.863Z,13.67
2023-05-19T00:50:44.685Z,13.56
2023-05-19T00:53:51.080Z,13.58
2023-05-19T00:56:58.503Z,13.42
2023-05-19T01:00:01.664Z,13.42
2023-05-19T01:03:11.642Z,13.50
2023-05-19T01:06:15.755Z,13.33
2023-05-19T01:09:18.658Z,13.42
2023-05-19T01:12:21.724Z,13.39
2023-05-19T01:15:27.116Z,13.21
2023-05-19T01:18:47.471Z,13.25
2023-05-19T01:22:01.191Z,13.23
2023-05-19T01:25:43.025Z,13.08
2023-05-19T01:29:13.843Z,12.96
2023-05-19T01:32:21.208Z,12.78
2023-05-19T01:35:26.314Z,12.89
2023-05-19T01:38:30.135Z,12.88
2023-05-19T01:41:35.051Z,12.80
2023-05-19T01:44:38.356Z,12.87
2023-05-19T01:47:43.198Z,12.88
2023-05-19T01:50:47.178Z,12.86
2023-05-19T01:53:51.525Z,12.64
2023-05-19T01:57:07.702Z,12.78
2023-05-19T02:00:39.664Z,12.79
2023-05-19T02:04:02.296Z,12.72
2023-05-19T02:07:37.365Z,12.55
2023-05-19T02:10:45.797Z,12.35
2023-05-19T02:13:51.405Z,12.16
2023-05-19T02:16:57.456Z,12.19
2023-05-19T02:20:00.410Z,12.29
2023-05-19T02:23:03.522Z,12.24
2023-05-19T02:26:06.225Z,12.10
2023-05-19T02:29:09.486Z,12.14
2023-05-19T02:32:12.695Z,11.94
2023-05-19T02:35:16.166Z,11.88
2023-05-19T02:38:18.991Z,11.86
2023-05-19T02:41:22.397Z,11.74
2023-05-19T02:44:25.129Z,11.90
2023-05-19T02:47:28.297Z,11.92
2023-05-19T02:50:31.340Z,11.92
2023-05-19T02:53:34.440Z,11.95
2023-05-19T02:56:37.239Z,12.02
2023-05-19T02:59:41.181Z,11.79
2023-05-19T03:02:44.336Z,11.64
2023-05-19T03:05:47.952Z,11.77
2023-05-19T03:08:51.136Z,11.66
2023-05-19T03:11:54.217Z,11.51
2023-05-19T03:14:56.994Z,11.67
2023-05-19T03:18:00.060Z,11.61
2023-05-19T03:21:02.751Z,11.65
2023-05-19T03:24:06.793Z,11.49
2023-05-19T03:27:10.312Z,11.75
2023-05-19T03:30:14.011Z,11.60
2023-05-19T03:33:18.793Z,11.73
2023-05-19T03:36:22.724Z,11.63
2023-05-19T03:39:25.628Z,11.59
2023-05-19T03:42:28.747Z,11.75
2023-05-19T03:45:31.667Z,11.85
2023-05-19T03:48:35.645Z,11.92
2023-05-19T03:51:39.955Z,11.90
2023-05-19T03:54:43.956Z,11.89
2023-05-19T03:57:46.744Z,11.84
2023-05-19T04:00:50.034Z,11.78
2023-05-19T04:03:53.085Z,11.67
2023-05-19T04:06:56.582Z,11.68
2023-05-19T04:09:59.680Z,11.53
2023-05-19T04:13:03.980Z,11.71
2023-05-19T04:16:07.671Z,11.74
2023-05-19T04:19:10.435Z,11.51
2023-05-19T04:22:13.636Z,11.52
2023-05-19T04:25:17.404Z,11.91
2023-05-19T04:28:21.682Z,11.75
2023-05-19T04:31:24.618Z,11.91
2023-05-19T04:34:28.860Z,11.93
2023-05-19T04:37:32.266Z,12.00
2023-05-19T04:40:35.548Z,12.07
2023-05-19T04:43:44.854Z,12.18
2023-05-19T04:46:48.280Z,12.27
2023-05-19T04:49:55.743Z,12.37
2023-05-19T04:52:59.413Z,12.38
2023-05-19T04:56:02.608Z,12.54
2023-05-19T04:59:06.998Z,12.48
2023-05-19T05:02:10.268Z,12.54
2023-05-19T05:05:13.660Z,12.64
2023-05-19T05:08:22.946Z,13.28
2023-05-19T05:11:26.839Z,13.35
2023-05-19T05:14:30.400Z,13.68
2023-05-19T05:17:35.538Z,13.50
2023-05-19T05:20:38.962Z,13.59
2023-05-19T05:23:42.339Z,13.16
2023-05-19T05:26:45.888Z,14.03
2023-05-19T05:29:51.541Z,13.89
2023-05-19T05:32:56.002Z,13.69
2023-05-19T05:36:01.601Z,13.66
2023-05-19T05:39:05.772Z,13.90
2023-05-19T05:42:12.489Z,14.33
2023-05-19T05:45:15.919Z,14.78
2023-05-19T05:48:19.227Z,14.17
2023-05-19T05:51:23.484Z,14.54
2023-05-19T05:54:26.765Z,14.80
2023-05-19T05:57:30.843Z,15.29
2023-05-19T06:00:34.738Z,15.04
2023-05-19T06:03:44.488Z,15.20
2023-05-19T06:06:48.044Z,14.86
2023-05-19T06:09:52.574Z,15.04
2023-05-19T06:12:55.678Z,15.18
2023-05-19T06:16:01.729Z,15.09
2023-05-19T06:19:05.333Z,15.41
2023-05-19T06:22:08.452Z,15.30
2023-05-19T06:25:11.352Z,15.44
2023-05-19T06:28:15.010Z,15.60
2023-05-19T06:31:17.891Z,15.28
2023-05-19T06:34:21.414Z,15.38
2023-05-19T06:37:24.383Z,15.51
2023-05-19T06:40:27.405Z,15.57
2023-05-19T06:43:30.507Z,15.37
2023-05-19T06:46:33.653Z,15.66
2023-05-19T06:49:36.432Z,15.88
2023-05-19T06:52:39.652Z,15.75
2023-05-19T06:55:54.774Z,15.82
2023-05-19T06:59:02.285Z,15.74
2023-05-19T07:02:05.685Z,15.67
2023-05-19T07:05:09.399Z,15.98
2023-05-19T07:08:12.458Z,16.05
2023-05-19T07:11:15.973Z,15.89
2023-05-19T07:14:19.044Z,16.13
2023-05-19T07:17:22.632Z,16.70
2023-05-19T07:20:25.926Z,16.39
2023-05-19T07:23:29.752Z,16.62
2023-05-19T07:26:32.399Z,16.74
2023-05-19T07:29:35.398Z,16.43
2023-05-19T07:32:38.317Z,16.79
2023-05-19T07:35:41.580Z,17.02
2023-05-19T07:38:44.475Z,16.52
2023-05-19T07:41:52.851Z,16.63
2023-05-19T07:44:55.643Z,16.85
2023-05-19T07:47:58.652Z,17.04
2023-05-19T07:51:03.568Z,17.07
2023-05-19T07:54:17.140Z,16.99
2023-05-19T07:57:19.941Z,16.88
2023-05-19T08:00:23.121Z,17.11
2023-05-19T08:03:27.099Z,17.28
2023-05-19T08:06:30.387Z,17.32
2023-05-19T08:09:33.450Z,17.15
2023-05-19T08:12:36.239Z,17.26
2023-05-19T08:15:39.375Z,17.39
2023-05-19T08:18:42.174Z,17.56
2023-05-19T08:21:45.565Z,17.73
2023-05-19T08:24:49.877Z,18.02
2023-05-19T08:27:52.786Z,18.02
2023-05-19T08:30:55.869Z,18.14
2023-05-19T08:33:58.956Z,18.11
2023-05-19T08:37:01.747Z,18.17
2023-05-19T08:40:05.916Z,17.96
2023-05-19T08:43:09.996Z,18.04
2023-05-19T08:46:15.136Z,17.54
2023-05-19T08:49:27.905Z,17.69
2023-05-19T08:57:00.639Z,18.28
2023-05-19T09:00:14.563Z,19.25
2023-05-19T09:03:23.689Z,19.39
2023-05-19T09:06:27.525Z,19.45
2023-05-19T09:09:30.755Z,19.04
2023-05-19T09:12:34.410Z,19.24
2023-05-19T09:15:39.243Z,19.92
2023-05-19T09:18:55.193Z,19.51
2023-05-19T09:22:05.864Z,19.51
2023-05-19T09:25:20.249Z,19.70
2023-05-19T09:28:28.189Z,20.12
2023-05-19T09:31:33.710Z,20.15
2023-05-19T09:34:42.000Z,20.69
2023-05-19T09:37:44.934Z,20.59
2023-05-19T09:40:49.959Z,20.13
2023-05-19T09:43:56.443Z,20.31
2023-05-19T09:46:59.997Z,20.04
2023-05-19T09:50:05.342Z,20.47
2023-05-19T09:53:08.167Z,20.15
2023-05-19T09:56:11.193Z,20.60
2023-05-19T09:59:16.222Z,20.38
2023-05-19T10:02:21.810Z,20.28
2023-05-19T10:05:25.035Z,20.48
2023-05-19T10:08:30.629Z,20.13
2023-05-19T10:11:34.354Z,19.95
2023-05-19T10:14:37.843Z,20.05
2023-05-19T10:17:42.599Z,19.75
2023-05-19T10:20:49.169Z,19.89
2023-05-19T10:23:52.187Z,20.41
2023-05-19T10:27:05.626Z,20.62
2023-05-19T10:30:15.028Z,20.37
2023-05-19T10:33:22.305Z,20.31
2023-05-19T10:36:44.959Z,20.95
2023-05-19T10:39:51.293Z,20.85
2023-05-19T10:43:07.475Z,20.29
2023-05-19T10:46:10.193Z,20.51
2023-05-19T10:49:21.640Z,20.23
2023-05-19T10:52:29.879Z,19.98
2023-05-19T10:55:47.702Z,19.92
2023-05-19T10:58:50.764Z,19.75
2023-05-19T11:01:53.841Z,19.84
2023-05-19T11:05:09.453Z,20.04
2023-05-19T11:08:12.888Z,19.88
2023-05-19T11:11:16.906Z,20.24
2023-05-19T11:14:27.489Z,19.94
2023-05-19T11:17:30.189Z,20.04
2023-05-19T11:20:35.090Z,20.45
2023-05-19T11:23:41.069Z,20.28
2023-05-19T11:26:45.715Z,21.02
2023-05-19T11:29:49.437Z,21.04
2023-05-19T11:32:54.388Z,21.21
2023-05-19T11:36:00.831Z,21.51
2023-05-19T11:39:04.601Z,21.42
2023-05-19T11:42:11.117Z,21.52
2023-05-19T11:45:14.234Z,21.21
2023-05-19T11:48:17.671Z,21.36
2023-05-19T11:51:21.810Z,21.27
2023-05-19T11:54:33.684Z,21.71
2023-05-19T11:57:37.186Z,22.72
2023-05-19T12:00:41.834Z,22.34
2023-05-19T12:03:44.965Z,21.77
2023-05-19T12:06:49.363Z,21.72
2023-05-19T12:09:53.291Z,21.51
2023-05-19T12:12:57.272Z,21.24
2023-05-19T12:16:01.484Z,21.18
2023-05-19T12:19:07.074Z,21.16
2023-05-19T12:22:10.495Z,21.25
2023-05-19T12:25:13.550Z,22.35
2023-05-19T12:28:17.209Z,22.77
2023-05-19T12:31:23.828Z,22.82
2023-05-19T12:34:26.926Z,22.48
2023-05-19T12:37:30.198Z,22.43
2023-05-19T12:40:37.779Z,21.54
2023-05-19T12:43:41.335Z,22.00
2023-05-19T12:46:44.500Z,21.47
2023-05-19T12:50:09.506Z,22.19
2023-05-19T12:53:13.199Z,21.59
2023-05-19T12:56:16.379Z,22.43
2023-05-19T12:59:37.364Z,22.57
2023-05-19T13:03:00.258Z,22.36
2023-05-19T13:06:03.577Z,23.22
2023-05-19T13:09:07.292Z,22.53
2023-05-19T13:12:10.319Z,22.92
2023-05-19T13:15:12.955Z,22.81
2023-05-19T13:18:16.053Z,22.69
2023-05-19T13:21:18.710Z,22.62
2023-05-19T13:24:21.622Z,23.21
2023-05-19T13:27:24.906Z,23.22
2023-05-19T13:30:28.347Z,22.81
2023-05-19T13:33:31.002Z,22.88
2023-05-19T13:36:35.091Z,22.54
2023-05-19T13:39:37.858Z,22.49
2023-05-19T13:42:41.212Z,22.43
2023-05-19T13:45:44.589Z,22.54
2023-05-19T13:48:47.530Z,22.41
2023-05-19T13:51:50.253Z,22.27
2023-05-19T13:54:54.882Z,22.60
2023-05-19T13:57:57.642Z,22.81
2023-05-19T14:01:00.590Z,22.83
2023-05-19T14:04:04.420Z,22.96
2023-05-19T14:07:09.768Z,22.54
2023-05-19T14:10:12.798Z,22.93
2023-05-19T14:13:31.512Z,23.31
2023-05-19T14:16:37.600Z,23.31
2023-05-19T14:19:41.038Z,23.19
2023-05-19T14:22:43.965Z,23.56
2023-05-19T14:25:46.605Z,23.87
2023-05-19T14:28:49.536Z,24.24
2023-05-19T14:31:52.128Z,24.13
2023-05-19T14:34:55.400Z,23.72
2023-05-19T14:37:58.050Z,23.74
2023-05-19T14:41:01.093Z,24.81
2023-05-19T14:44:04.011Z,25.16
2023-05-19T14:47:07.551Z,25.31
2023-05-19T14:50:10.455Z,24.42
2023-05-19T14:53:13.438Z,24.05
2023-05-19T14:56:16.048Z,24.21
2023-05-19T14:59:19.052Z,23.94
2023-05-19T15:02:21.775Z,23.80
2023-05-19T15:05:24.717Z,23.99
2023-05-19T15:08:27.617Z,24.51
2023-05-19T15:11:30.636Z,24.70
2023-05-19T15:14:33.242Z,24.01
2023-05-19T15:17:36.519Z,24.09
2023-05-19T15:20:39.206Z,24.29
2023-05-19T15:23:42.213Z,24.25
2023-05-19T15:26:45.853Z,24.20
2023-05-19T15:29:48.822Z,23.64
2023-05-19T15:32:51.481Z,23.18
2023-05-19T15:35:54.536Z,23.63
2023-05-19T15:38:57.273Z,24.11
2023-05-19T15:42:00.333Z,24.48
2023-05-19T15:45:03.115Z,24.65
2023-05-19T15:48:06.370Z,24.61
2023-05-19T15:51:09.062Z,24.75
2023-05-19T15:54:12.009Z,24.55
2023-05-19T15:57:14.628Z,24.99
2023-05-19T16:00:17.648Z,25.31
2023-05-19T16:03:22.552Z,25.28
2023-05-19T16:06:27.666Z,24.99
2023-05-19T16:09:30.789Z,25.20
2023-05-19T16:12:33.789Z,25.16
2023-05-19T16:15:36.681Z,25.07
2023-05-19T16:18:39.377Z,24.74
2023-05-19T16:21:42.406Z,23.95
2023-05-19T16:24:45.094Z,23.91
2023-05-19T16:27:47.990Z,23.59
2023-05-19T16:30:50.721Z,23.24
2023-05-19T16:33:54.136Z,23.01
2023-05-19T16:36:56.801Z,22.50
2023-05-19T16:39:59.886Z,22.75
2023-05-19T16:43:02.579Z,22.31
2023-05-19T16:46:05.771Z,22.36
2023-05-19T16:49:08.532Z,22.08
2023-05-19T16:52:11.675Z,22.08
2023-05-19T16:55:19.790Z,21.88
2023-05-19T16:58:22.806Z,21.66
2023-05-19T17:01:25.605Z,21.44
2023-05-19T17:04:30.639Z,21.30
2023-05-19T17:07:33.681Z,21.24
2023-05-19T17:10:38.671Z,21.03
2023-05-19T17:13:43.570Z,20.99
2023-05-19T17:16:46.732Z,20.94
2023-05-19T17:19:49.397Z,20.55
2023-05-19T17:22:52.827Z,20.34
2023-05-19T17:25:55.853Z,20.39
2023-05-19T17:28:58.908Z,20.23
2023-05-19T17:32:01.639Z,19.98
2023-05-19T17:35:06.778Z,20.29
2023-05-19T17:38:09.532Z,20.42
2023-05-19T17:41:14.170Z,20.40
2023-05-19T17:44:16.845Z,20.16
2023-05-19T17:47:19.693Z,20.12
2023-05-19T17:50:22.318Z,20.23
2023-05-19T17:53:26.319Z,20.17
2023-05-19T17:56:34.105Z,20.02
2023-05-19T17:59:37.319Z,20.09
2023-05-19T18:02:40.450Z,19.94
2023-05-19T18:05:44.734Z,19.86
2023-05-19T18:08:50.682Z,19.86
2023-05-19T18:11:55.114Z,19.77
2023-05-19T18:14:57.958Z,19.66
2023-05-19T18:18:01.439Z,19.35
2023-05-19T18:21:04.415Z,19.20
2023-05-19T18:24:07.375Z,19.13
2023-05-19T18:27:10.106Z,19.00
2023-05-19T18:30:13.232Z,19.02
2023-05-19T18:33:16.470Z,18.96
2023-05-19T18:36:19.723Z,18.97
2023-05-19T18:39:22.367Z,18.92
2023-05-19T18:42:25.546Z,18.77
2023-05-19T18:45:28.247Z,18.57
2023-05-19T18:48:32.141Z,18.56
2023-05-19T18:51:36.139Z,18.52
2023-05-19T18:54:40.677Z,18.53
2023-05-19T18:57:43.408Z,18.46
2023-05-19T19:00:46.414Z,18.32
2023-05-19T19:03:49.507Z,18.33
2023-05-19T19:06:52.554Z,18.30
2023-05-19T19:09:55.261Z,18.40
2023-05-19T19:12:58.263Z,18.36
2023-05-19T19:16:01.200Z,18.24
2023-05-19T19:19:04.349Z,18.10
2023-05-19T19:22:07.064Z,18.00
2023-05-19T19:25:10.127Z,17.88
2023-05-19T19:28:12.779Z,17.74
2023-05-19T19:31:15.843Z,17.64
2023-05-19T19:34:19.966Z,17.60
2023-05-19T19:37:22.863Z,17.46
2023-05-19T19:40:25.579Z,17.22
2023-05-19T19:43:28.466Z,17.03
2023-05-19T19:46:31.173Z,17.03
2023-05-19T19:49:34.160Z,17.01
2023-05-19T19:52:37.306Z,16.91
2023-05-19T19:55:40.237Z,16.82
2023-05-19T19:58:42.897Z,16.49
2023-05-19T20:01:45.997Z,16.24
2023-05-19T20:04:49.696Z,16.26
2023-05-19T20:07:52.363Z,16.26
2023-05-19T20:10:55.288Z,16.26
2023-05-19T20:13:57.905Z,16.21
2023-05-19T20:17:00.895Z,16.21
2023-05-19T20:20:08.098Z,16.15
2023-05-19T20:23:12.643Z,16.13
2023-05-19T20:26:16.026Z,16.02
2023-05-19T20:29:19.099Z,15.96
2023-05-19T20:32:21.805Z,15.88
2023-05-19T20:35:25.165Z,15.98
2023-05-19T20:38:27.804Z,15.98
2023-05-19T20:41:31.378Z,15.94
2023-05-19T20:44:34.061Z,15.70
2023-05-19T20:47:37.183Z,15.61
2023-05-19T20:50:40.078Z,15.47
2023-05-19T20:53:43.127Z,15.40
2023-05-19T20:56:46.113Z,15.39
2023-05-19T20:59:49.108Z,15.30
2023-05-19T21:02:52.080Z,15.24
2023-05-19T21:05:55.694Z,15.18
2023-05-19T21:08:58.398Z,15.13
2023-05-19T21:12:01.398Z,15.19
2023-05-19T21:15:05.967Z,15.13
2023-05-19T21:18:11.951Z,14.92
2023-05-19T21:21:14.887Z,14.68
2023-05-19T21:24:17.879Z,14.78
2023-05-19T21:27:20.799Z,14.80
2023-05-19T21:30:24.419Z,14.56
2023-05-19T21:33:27.007Z,14.67
2023-05-19T21:36:29.994Z,14.63
2023-05-19T21:39:32.674Z,14.63
2023-05-19T21:42:35.917Z,14.69
2023-05-19T21:45:38.858Z,14.64
2023-05-19T21:48:41.806Z,14.43
2023-05-19T21:51:44.430Z,14.25
2023-05-19T21:54:47.916Z,14.17
2023-05-19T21:57:50.557Z,14.18
2023-05-19T22:00:57.015Z,14.16
2023-05-19T22:04:00.002Z,13.96
2023-05-19T22:07:02.680Z,14.04
2023-05-19T22:10:06.068Z,13.98
2023-05-19T22:13:08.764Z,13.97
2023-05-19T22:16:11.692Z,13.95
2023-05-19T22:19:14.882Z,13.95
2023-05-19T22:22:17.796Z,13.96
2023-05-19T22:25:20.550Z,13.76
2023-05-19T22:28:23.458Z,13.81
2023-05-19T22:31:26.088Z,13.79
2023-05-19T22:34:29.129Z,13.86
2023-05-19T22:37:31.871Z,14.04
2023-05-19T22:40:34.978Z,13.98
2023-05-19T22:43:38.023Z,14.07
2023-05-19T22:46:41.082Z,14.10
2023-05-19T22:49:43.856Z,13.88
2023-05-19T22:52:46.770Z,13.71
2023-05-19T22:55:49.400Z,13.59
2023-05-19T22:58:52.301Z,13.63
2023-05-19T23:01:55.068Z,13.54
2023-05-19T23:04:57.993Z,13.53
2023-05-19T23:08:00.694Z,13.47
2023-05-19T23:11:03.694Z,13.52
2023-05-19T23:14:06.346Z,13.50
2023-05-19T23:17:09.353Z,13.40
2023-05-19T23:20:12.913Z,13.33
2023-05-19T23:23:16.375Z,13.43
2023-05-19T23:26:19.078Z,13.35
2023-05-19T23:29:22.056Z,13.37
2023-05-19T23:32:24.635Z,13.30
2023-05-19T23:35:27.726Z,13.48
2023-05-19T23:38:30.405Z,13.35
2023-05-19T23:41:33.344Z,13.44
2023-05-19T23:44:36.217Z,13.58
2023-05-19T23:47:39.376Z,13.60
2023-05-19T23:50:42.102Z,13.63
2023-05-19T23:53:45.049Z,13.60
2023-05-19T23:56:47.818Z,13.60
2023-05-19T23:59:50.753Z,13.53
